Stokesdale, Pennsylvania
Current Conditions -  °F | °C
As of 12:35 AM on Wednesday 26 Nov 2014 (Local Time) from KN38 Reporting Station
Clear Clear  
Wind Chill: 24°   Ceiling: Unl
Heat Index: 30°   Visibility: 10mi
Dew Point: 23°   Wind: 6mph
Humidity: 75%   Direction: 360°N
Pressure: 30.13"   Gusts: NA
Location:  41.7308°N, 77.349°W
Report Text: KN38 260535Z AUTO 36005KT 10SM CLR M01/M05 A3013 RMK AO2
Loading
Personal Weather Stations






























Interactive Weather Map New forecast layout! Learn more

10-Day Weather Forecast

Advertisements
Track Severe Weather on mobile